Aviation Digital Data Service (ADDS)

Output produced by METARs form (2003 UTC 25 July 2016)
found at http://www.aviationweather.gov/adds/metars/
 
METAR text: EPRZ 252000Z 03004KT CAVOK 22/18 Q1016
Conditions at: EPRZ (RZESZOW/JASIONKA, PL) observed 2000 UTC 25 July 2016
Temperature: 22.0°C (72°F)
Dewpoint: 18.0°C (64°F) [RH = 78%]
Pressure (altimeter): 30.00 inches Hg (1016.0 mb)
Winds: from the NNE (30 degrees) at 5 MPH (4 knots; 2.1 m/s)
Visibility: 6 or more miles (10+ km)
Ceiling: ceiling and visibility are OK
Clouds: unknown
Weather: no significant weather observed at this time

Forecast for: EPRZ (RZESZOW/JASIONKA, PL)
Text: TAF EPRZ 251730Z 2518/2618 VRB02KT CAVOK
Forecast period: 1800 UTC 25 July 2016 to 1800 UTC 26 July 2016
Forecast type: FROM: standard forecast or significant change
Winds: variable direction winds at 2 MPH (2 knots; 1.0 m/s)
Visibility: 6 or more miles (10+ km)
Clouds: not forecast
Weather: NSW  (no significant weather)
Text: TEMPO 2612/2618 4000 TSRA BKN040CB
Forecast period: 1200 to 1800 UTC 26 July 2016
Forecast type: TEMPORARY: The following changes expected for less than half the time period
Visibility: 2.49 miles (4.01 km)
Ceiling: 4000 feet AGL
Clouds: broken clouds at 4000 feet AGL
Weather: TSRA  (rain associated with thunderstorm(s))